Time;durP1;ratioP1;P1;durP2;ratioP2;P2;SDS_P1;SDS_P2;PMS_P1;PMS_P2;Temp;Humidity;BMP_temperature;BMP_pressure;BME280_temperature;BME280_humidity;BME280_pressure;Samples;Min_cycle;Max_cycle;Signal;HPM_P1;HPM_P2
2021/12/24 00:00:10;;;;;;;80.80;31.02;;;;;;;-0.68;100.00;100478.81;5023428;28;20037;-78
2021/12/24 00:02:36;;;;;;;77.00;30.50;;;;;;;-0.63;100.00;100478.50;5022983;28;20029;-80
2021/12/24 00:05:02;;;;;;;72.30;29.33;;;;;;;-0.56;100.00;100482.41;5006739;28;20517;-79
2021/12/24 00:07:27;;;;;;;;;;;;;;;-0.67;100.00;100448.16;5013869;28;20056;-79
2021/12/24 00:09:53;;;;;;;85.90;30.67;;;;;;;-0.66;100.00;100455.94;5023140;28;19913;-79
2021/12/24 00:12:20;;;;;;;69.20;27.85;;;;;;;-0.62;100.00;100461.81;5023221;28;20030;-79
2021/12/24 00:14:51;;;;;;;67.97;27.08;;;;;;;-0.64;100.00;100445.34;5022978;28;20379;-79
2021/12/24 00:17:23;;;;;;;61.55;26.90;;;;;;;-0.65;100.00;100441.88;5022456;28;20124;-79
2021/12/24 00:35:54;;;;;;;68.82;27.15;;;;;;;-0.64;100.00;100454.03;5022362;28;20049;-78
2021/12/24 00:38:20;;;;;;;63.83;27.27;;;;;;;-0.59;100.00;100458.16;5003879;28;20029;-79
2021/12/24 00:40:47;;;;;;;61.92;24.55;;;;;;;-0.59;100.00;100471.28;5024764;28;20323;-79
2021/12/24 00:43:14;;;;;;;63.33;25.00;;;;;;;-0.58;100.00;100468.56;5006733;28;20154;-79
2021/12/24 00:45:42;;;;;;;57.88;25.85;;;;;;;-0.61;100.00;100463.50;5006474;28;20036;-79
2021/12/24 00:48:11;;;;;;;60.80;27.60;;;;;;;-0.66;100.00;100465.56;5022614;28;20402;-79
2021/12/24 00:50:55;;;;;;;57.60;26.42;;;;;;;-0.67;100.00;100462.13;5005876;28;20029;-79
2021/12/24 00:56:03;;;;;;;56.25;24.70;;;;;;;-0.63;100.00;100465.41;5021625;28;20398;-79
2021/12/24 00:58:29;;;;;;;53.90;23.50;;;;;;;-0.62;100.00;100461.00;5021351;28;20030;-78
2021/12/24 01:00:55;;;;;;;50.47;22.35;;;;;;;-0.61;100.00;100460.03;5007330;28;20116;-79
2021/12/24 01:03:22;;;;;;;52.08;22.55;;;;;;;-0.62;100.00;100453.97;5025685;28;20490;-79
2021/12/24 01:05:48;;;;;;;48.17;22.13;;;;;;;-0.60;100.00;100459.94;5025203;28;20055;-78
2021/12/24 01:08:15;;;;;;;54.80;23.08;;;;;;;-0.62;100.00;100455.75;5025290;28;20477;-78
2021/12/24 01:10:48;;;;;;;53.80;22.15;;;;;;;-0.62;100.00;100458.38;5026669;28;20041;-79
2021/12/24 01:13:15;;;;;;;48.20;21.85;;;;;;;-0.58;100.00;100462.47;5026223;28;20407;-78
2021/12/24 01:15:52;;;;;;;48.55;22.65;;;;;;;-0.60;100.00;100465.19;5025189;28;20065;-78
2021/12/24 01:18:28;;;;;;;68.68;26.40;;;;;;;-0.58;100.00;100465.94;5009804;28;20037;-78
2021/12/24 01:21:12;;;;;;;62.75;25.73;;;;;;;-0.61;100.00;100454.78;5010229;28;20087;-78
2021/12/24 01:23:51;;;;;;;45.67;20.77;;;;;;;-0.59;100.00;100458.16;5025616;28;20081;-79
2021/12/24 01:26:32;;;;;;;41.47;20.98;;;;;;;-0.60;100.00;100448.63;5025329;28;20037;-78
2021/12/24 01:45:36;;;;;;;43.85;18.77;;;;;;;-0.58;100.00;100431.00;5024985;28;20025;-78
2021/12/24 01:48:09;;;;;;;33.92;17.42;;;;;;;-0.61;100.00;100429.41;4986965;28;20041;-79
2021/12/24 01:50:37;;;;;;;37.75;17.75;;;;;;;-0.50;100.00;100449.72;5007396;28;20029;-78
2021/12/24 01:53:06;;;;;;;38.17;19.65;;;;;;;-0.49;100.00;100454.03;5024509;28;20065;-78
2021/12/24 01:55:34;;;;;;;36.35;17.85;;;;;;;-0.47;100.00;100450.38;5024700;28;20128;-78
2021/12/24 01:57:59;;;;;;;36.30;17.55;;;;;;;-0.54;100.00;100438.59;5008965;28;20033;-78
2021/12/24 02:00:29;;;;;;;42.17;19.23;;;;;;;-0.62;100.00;100414.63;5008714;28;20040;-78
2021/12/24 02:02:56;;;;;;;35.53;18.23;;;;;;;-0.59;100.00;100422.28;5025825;28;20390;-78
2021/12/24 02:05:22;;;;;;;38.40;17.77;;;;;;;-0.65;100.00;100407.81;5026828;28;20549;-78
2021/12/24 02:07:48;;;;;;;38.75;18.65;;;;;;;-0.64;100.00;100412.09;5026995;28;20232;-78
2021/12/24 02:10:17;;;;;;;35.80;17.50;;;;;;;-0.66;100.00;100413.13;5020709;28;20057;-78
2021/12/24 02:12:43;;;;;;;39.53;19.83;;;;;;;-0.74;100.00;100402.31;5025225;28;20042;-78
2021/12/24 02:15:14;;;;;;;;;;;;;;;-0.60;100.00;100432.91;5024768;28;20037;-78
2021/12/24 02:18:19;;;;;;;37.42;17.45;;;;;;;-0.60;100.00;100423.25;5007203;28;20062;-78
2021/12/24 02:28:58;;;;;;;36.25;18.83;;;;;;;-0.64;100.00;100435.69;5039813;28;20490;-78
2021/12/24 02:31:25;;;;;;;42.55;19.27;;;;;;;-0.67;100.00;100428.03;5026731;28;20029;-78
2021/12/24 02:33:52;;;;;;;37.67;19.10;;;;;;;-0.61;100.00;100436.44;5035393;28;20479;-76
2021/12/24 02:36:20;;;;;;;36.88;17.63;;;;;;;-0.59;100.00;100450.28;5010341;28;20041;-78
2021/12/24 02:38:47;;;;;;;36.50;17.40;;;;;;;-0.57;100.00;100444.00;5026108;28;20186;-78
2021/12/24 02:41:13;;;;;;;33.63;16.98;;;;;;;-0.55;100.00;100431.66;5010220;28;20030;-78
2021/12/24 02:43:40;;;;;;;40.97;19.77;;;;;;;-0.55;100.00;100430.81;5024774;28;20038;-78
2021/12/24 02:46:14;;;;;;;;;;;;;;;-0.53;100.00;100442.88;5025605;28;20122;-78
2021/12/24 02:54:08;;;;;;;32.13;15.07;;;;;;;-0.59;100.00;100430.16;5024164;28;20021;-78
2021/12/24 02:56:36;;;;;;;34.10;16.92;;;;;;;-0.58;100.00;100433.63;5026420;28;20091;-79
2021/12/24 02:59:14;;;;;;;32.70;16.75;;;;;;;-0.62;100.00;100427.75;5025450;28;20195;-78
2021/12/24 03:01:43;;;;;;;33.05;16.85;;;;;;;-0.65;100.00;100415.66;5026288;28;20044;-78
2021/12/24 03:04:09;;;;;;;30.98;16.65;;;;;;;-0.60;100.00;100423.25;5026199;28;20514;-77
2021/12/24 03:06:40;;;;;;;34.20;17.00;;;;;;;-0.56;100.00;100427.34;5022711;28;20048;-78
2021/12/24 03:09:10;;;;;;;30.50;14.43;;;;;;;-0.56;100.00;100422.09;5025759;28;20490;-78
2021/12/24 03:11:36;;;;;;;33.63;17.70;;;;;;;-0.56;100.00;100419.47;5025893;28;20037;-78
2021/12/24 03:14:03;;;;;;;31.23;15.80;;;;;;;-0.59;100.00;100418.81;5024664;28;20709;-78
2021/12/24 03:16:29;;;;;;;33.60;16.08;;;;;;;-0.56;100.00;100422.09;5024197;28;20090;-79
2021/12/24 03:18:55;;;;;;;30.83;16.08;;;;;;;-0.58;100.00;100413.50;5007149;28;20037;-78
2021/12/24 03:21:51;;;;;;;34.55;15.88;;;;;;;-0.58;100.00;100399.56;5024373;28;20033;-78
2021/12/24 03:26:45;;;;;;;30.17;15.60;;;;;;;-0.57;100.00;100396.81;5023034;28;20130;-78
2021/12/24 03:29:12;;;;;;;29.33;15.07;;;;;;;-0.55;100.00;100400.19;5007611;28;20093;-78
2021/12/24 03:31:39;;;;;;;34.83;16.83;;;;;;;-0.53;100.00;100407.97;5023566;28;20544;-78
2021/12/24 03:34:07;;;;;;;29.35;15.13;;;;;;;-0.51;100.00;100404.28;5022396;28;20483;-79
2021/12/24 03:36:33;;;;;;;33.30;15.23;;;;;;;-0.46;100.00;100404.81;5005929;28;20049;-79
2021/12/24 03:38:58;;;;;;;34.53;16.95;;;;;;;-0.49;100.00;100399.78;5007433;28;20082;-78
2021/12/24 03:41:25;;;;;;;26.38;13.85;;;;;;;-0.49;100.00;100419.94;5006525;28;20136;-78
2021/12/24 03:43:53;;;;;;;31.10;16.15;;;;;;;-0.45;100.00;100422.22;5014065;28;20060;-78
2021/12/24 03:46:25;;;;;;;33.03;16.00;;;;;;;-0.46;100.00;100419.72;5023074;28;20386;-78
2021/12/24 03:48:55;;;;;;;35.63;16.25;;;;;;;-0.48;100.00;100411.94;5006846;28;20037;-78
2021/12/24 03:56:36;;;;;;;49.97;20.48;;;;;;;-0.55;100.00;100388.84;5032395;28;20036;-78
2021/12/24 03:59:03;;;;;;;31.80;15.85;;;;;;;-0.55;100.00;100381.81;5020855;28;20044;-78
2021/12/24 04:01:54;;;;;;;44.85;19.08;;;;;;;-0.55;100.00;100375.75;5024291;28;20048;-78
2021/12/24 04:04:43;;;;;;;33.20;16.00;;;;;;;-0.52;100.00;100381.59;5026840;28;20095;-78
2021/12/24 04:07:28;;;;;;;;;;;;;;;-0.49;100.00;100372.72;5016316;28;20052;-78
2021/12/24 04:10:37;;;;;;;32.25;14.82;;;;;;;-0.51;100.00;100378.06;5027408;28;19913;-78
2021/12/24 04:13:22;;;;;;;40.30;17.75;;;;;;;-0.54;100.00;100373.03;5026992;28;20932;-78
2021/12/24 04:15:47;;;;;;;51.97;21.17;;;;;;;-0.57;100.00;100364.50;5009658;28;20077;-78
2021/12/24 04:18:21;;;;;;;39.72;16.40;;;;;;;-0.60;100.00;100349.81;5025540;28;20040;-77
2021/12/24 04:26:15;;;;;;;37.65;16.80;;;;;;;-0.53;100.00;100369.44;5029959;28;20082;-78
2021/12/24 04:28:41;;;;;;;34.67;16.10;;;;;;;-0.50;100.00;100381.53;5011766;28;20025;-78
2021/12/24 04:31:06;;;;;;;35.92;15.85;;;;;;;-0.51;100.00;100370.19;5028038;28;20033;-78
2021/12/24 04:33:36;;;;;;;31.95;15.35;;;;;;;-0.49;100.00;100384.06;5017107;23;20133;-81
2021/12/24 04:52:13;;;;;;;35.70;15.13;;;;;;;-0.35;100.00;100384.91;5025963;28;20834;-82
2021/12/24 05:05:35;;;;;;;38.10;16.45;;;;;;;-0.37;100.00;100366.66;5044109;28;20033;-83
2021/12/24 05:10:34;;;;;;;31.60;15.85;;;;;;;-0.36;100.00;100373.56;5033087;28;20100;-81
2021/12/24 05:13:00;;;;;;;61.50;19.05;;;;;;;-0.41;100.00;100359.09;5040971;28;20037;-80
2021/12/24 05:15:39;;;;;;;45.70;17.70;;;;;;;-0.29;100.00;100385.34;5031773;28;20037;-80
2021/12/24 05:18:31;;;;;;;62.33;20.65;;;;;;;-0.28;100.00;100386.19;5032315;28;20414;-80
2021/12/24 05:21:34;;;;;;;39.92;15.43;;;;;;;-0.36;100.00;100375.38;5033392;28;20132;-81
2021/12/24 05:24:03;;;;;;;44.13;16.20;;;;;;;-0.32;100.00;100385.56;5023594;28;20114;-80
2021/12/24 05:26:29;;;;;;;49.33;17.17;;;;;;;-0.42;100.00;100363.50;5029759;28;20044;-80
2021/12/24 05:28:56;;;;;;;42.15;15.52;;;;;;;-0.44;100.00;100370.63;5036082;28;20037;-80
2021/12/24 05:31:22;;;;;;;61.42;18.05;;;;;;;-0.41;100.00;100382.72;5043628;28;20763;-81
2021/12/24 05:33:48;;;;;;;47.72;16.48;;;;;;;-0.31;100.00;100417.88;5040514;28;20152;-82
2021/12/24 05:36:14;;;;;;;73.68;21.33;;;;;;;-0.24;100.00;100414.75;5035680;28;20460;-80
2021/12/24 05:38:39;;;;;;;53.50;17.63;;;;;;;-0.23;100.00;100410.34;5039374;28;20029;-79
2021/12/24 05:41:05;;;;;;;65.13;18.85;;;;;;;-0.21;100.00;100418.97;5040200;28;20036;-80
2021/12/24 05:43:30;;;;;;;54.90;17.98;;;;;;;-0.20;100.00;100404.88;5035800;28;20147;-80
2021/12/24 05:45:56;;;;;;;52.63;16.95;;;;;;;-0.27;100.00;100386.09;5027386;28;20097;-80
2021/12/24 05:48:25;;;;;;;48.83;17.90;;;;;;;-0.22;100.00;100401.53;5039145;28;20522;-81
2021/12/24 05:50:57;;;;;;;65.93;20.73;;;;;;;-0.36;100.00;100368.34;5030004;28;20504;-80
2021/12/24 05:53:59;;;;;;;65.38;19.13;;;;;;;-0.31;100.00;100373.28;4945586;29;20500;-80
2021/12/24 05:56:28;;;;;;;59.85;18.15;;;;;;;-0.38;100.00;100359.72;5006968;28;20052;-81
2021/12/24 05:59:05;;;;;;;53.38;17.73;;;;;;;-0.34;100.00;100382.19;5043820;28;20021;-81
2021/12/24 06:01:31;;;;;;;59.85;18.58;;;;;;;-0.42;100.00;100355.63;5040267;28;20033;-81
2021/12/24 06:03:57;;;;;;;45.67;16.95;;;;;;;-0.23;100.00;100395.44;5033178;28;20018;-81
2021/12/24 06:06:22;;;;;;;65.10;21.38;;;;;;;-0.29;100.00;100366.97;5032902;28;20063;-82
2021/12/24 06:08:48;;;;;;;48.78;15.90;;;;;;;-0.26;100.00;100365.94;5032668;28;20471;-81
2021/12/24 06:11:14;;;;;;;51.10;16.80;;;;;;;-0.33;100.00;100362.03;5043688;28;20032;-81
2021/12/24 06:13:40;;;;;;;69.57;20.63;;;;;;;-0.19;100.00;100390.81;5032377;28;20029;-81
2021/12/24 06:16:07;;;;;;;48.72;18.42;;;;;;;-0.14;100.00;100382.63;5033232;28;20686;-81
2021/12/24 06:18:36;;;;;;;63.60;19.38;;;;;;;-0.23;100.00;100347.38;5023438;28;20041;-81
2021/12/24 06:21:03;;;;;;;56.55;20.77;;;;;;;-0.22;100.00;100354.31;5013239;28;20054;-82
2021/12/24 06:23:30;;;;;;;50.45;18.65;;;;;;;-0.20;100.00;100373.41;5030085;28;20032;-82
2021/12/24 06:25:57;;;;;;;58.60;19.83;;;;;;;-0.25;100.00;100354.50;5035487;28;20509;-82
2021/12/24 06:28:24;;;;;;;59.10;19.90;;;;;;;-0.17;100.00;100380.22;5017305;28;20083;-83
2021/12/24 06:30:50;;;;;;;71.60;22.13;;;;;;;-0.27;100.00;100366.88;5028861;28;20052;-82
2021/12/24 06:33:15;;;;;;;66.88;20.25;;;;;;;-0.21;100.00;100382.22;5027897;28;20486;-81
2021/12/24 06:35:41;;;;;;;63.85;20.42;;;;;;;-0.28;100.00;100359.94;5039685;28;20555;-82
2021/12/24 06:38:07;;;;;;;66.65;23.45;;;;;;;-0.10;100.00;100379.72;5021557;28;20033;-83
2021/12/24 06:40:33;;;;;;;57.00;19.45;;;;;;;-0.15;100.00;100339.81;5047500;28;20048;-82
2021/12/24 06:42:59;;;;;;;54.38;17.92;;;;;;;-0.20;100.00;100339.28;5037345;28;20120;-81
2021/12/24 06:45:24;;;;;;;78.10;24.60;;;;;;;-0.20;100.00;100334.06;5024108;28;20065;-81
2021/12/24 06:47:55;;;;;;;52.47;19.75;;;;;;;-0.20;100.00;100330.59;5038497;28;20041;-81
2021/12/24 06:50:22;;;;;;;68.07;21.73;;;;;;;-0.31;100.00;100307.69;5035288;28;20033;-82
2021/12/24 06:52:48;;;;;;;51.72;19.83;;;;;;;-0.16;100.00;100358.31;5021856;28;20036;-82
2021/12/24 06:55:15;;;;;;;;;;;;;;;-0.15;100.00;100366.06;5044587;28;20021;-81
2021/12/24 06:57:42;;;;;;;69.13;20.55;;;;;;;-0.20;100.00;100351.59;5026426;28;20290;-81
2021/12/24 07:00:15;;;;;;;76.85;22.42;;;;;;;-0.27;100.00;100335.41;5037850;28;20122;-82
2021/12/24 07:02:42;;;;;;;58.85;20.38;;;;;;;-0.23;100.00;100336.88;5040794;28;20036;-81
2021/12/24 07:05:08;;;;;;;61.97;21.13;;;;;;;-0.21;100.00;100348.13;5028395;28;20057;-82
2021/12/24 07:07:33;;;;;;;84.43;24.33;;;;;;;-0.28;100.00;100328.47;5040631;28;20041;-81
2021/12/24 07:09:59;;;;;;;63.77;21.60;;;;;;;-0.24;100.00;100345.69;5026725;28;20040;-81
2021/12/24 07:12:24;;;;;;;68.18;22.65;;;;;;;-0.29;100.00;100332.88;5040398;28;20283;-81
2021/12/24 07:14:50;;;;;;;67.53;21.55;;;;;;;-0.40;100.00;100313.56;5041802;28;20048;-80
2021/12/24 07:17:16;;;;;;;66.22;21.83;;;;;;;-0.26;100.00;100358.94;5024446;28;20065;-81
2021/12/24 07:19:43;;;;;;;67.18;22.88;;;;;;;-0.20;100.00;100349.78;5023708;28;20827;-78
2021/12/24 07:22:08;;;;;;;77.22;23.40;;;;;;;-0.25;100.00;100330.91;5038128;28;20096;-80
2021/12/24 07:24:35;;;;;;;64.87;23.87;;;;;;;-0.33;100.00;100320.06;5028227;28;20103;-79
2021/12/24 07:27:02;;;;;;;67.63;23.25;;;;;;;-0.25;100.00;100320.41;5028149;28;20287;-79
2021/12/24 07:29:28;;;;;;;70.25;22.05;;;;;;;-0.32;100.00;100317.34;5033464;28;20475;-79
2021/12/24 07:31:54;;;;;;;63.75;22.17;;;;;;;-0.29;100.00;100326.78;5052273;28;20056;-79
2021/12/24 07:34:19;;;;;;;75.95;25.15;;;;;;;-0.25;100.00;100338.78;5041367;28;20032;-79
2021/12/24 07:36:45;;;;;;;65.22;22.73;;;;;;;-0.31;100.00;100315.56;5038460;28;20056;-79
2021/12/24 07:39:11;;;;;;;69.55;23.40;;;;;;;-0.30;100.00;100340.88;5037512;28;20059;-80
2021/12/24 07:41:36;;;;;;;72.70;26.40;;;;;;;-0.29;100.00;100348.63;5046036;28;20128;-79
2021/12/24 07:44:06;;;;;;;83.53;29.20;;;;;;;-0.25;100.00;100370.25;5039572;28;20022;-79
2021/12/24 07:46:39;;;;;;;88.10;27.80;;;;;;;-0.29;100.00;100366.97;5033353;28;20422;-79
2021/12/24 07:49:29;;;;;;;95.05;27.98;;;;;;;-0.23;100.00;100365.75;5032270;28;20065;-80
2021/12/24 07:52:15;;;;;;;87.40;29.27;;;;;;;-0.25;100.00;100357.97;5021124;28;20039;-77
2021/12/24 07:55:09;;;;;;;96.07;30.20;;;;;;;-0.26;100.00;100365.94;5016893;28;20052;-75
2021/12/24 07:58:00;;;;;;;94.47;31.70;;;;;;;-0.25;100.00;100386.00;5022820;28;20137;-75
2021/12/24 08:00:51;;;;;;;95.60;29.67;;;;;;;-0.20;100.00;100404.88;5010414;28;20099;-76
2021/12/24 08:03:24;;;;;;;101.25;33.45;;;;;;;-0.15;100.00;100402.81;5031327;28;20037;-75
2021/12/24 08:05:49;;;;;;;103.93;33.70;;;;;;;-0.16;100.00;100413.41;5030361;28;20127;-75
2021/12/24 08:08:15;;;;;;;109.23;34.70;;;;;;;-0.18;100.00;100397.75;4995662;28;20578;-76
2021/12/24 08:10:41;;;;;;;104.28;32.15;;;;;;;-0.24;100.00;100387.66;5029163;28;20411;-74
2021/12/24 08:13:07;;;;;;;104.45;31.25;;;;;;;-0.20;100.00;100389.16;5008354;28;20058;-76
2021/12/24 08:15:32;;;;;;;110.60;34.50;;;;;;;-0.23;100.00;100394.59;5035937;28;20041;-76
2021/12/24 08:18:22;;;;;;;118.00;35.10;;;;;;;-0.19;100.00;100376.88;5011051;28;20479;-76
2021/12/24 08:21:13;;;;;;;98.55;34.10;;;;;;;-0.25;100.00;100370.25;5028565;28;20044;-75
2021/12/24 08:24:04;;;;;;;105.43;33.80;;;;;;;-0.13;100.00;100385.16;5016229;28;20410;-75
2021/12/24 08:26:31;;;;;;;115.63;35.08;;;;;;;-0.03;100.00;100378.34;5008905;28;20034;-75
2021/12/24 08:28:56;;;;;;;100.60;32.53;;;;;;;0.03;100.00;100384.16;5009648;28;20108;-75
2021/12/24 08:31:22;;;;;;;106.97;34.38;;;;;;;-0.01;100.00;100357.25;5010570;28;20116;-77
2021/12/24 08:33:47;;;;;;;102.10;32.80;;;;;;;-0.06;100.00;100336.56;5022788;28;20426;-75
2021/12/24 08:36:12;;;;;;;106.87;33.77;;;;;;;0.03;100.00;100345.63;5021820;28;20084;-75
2021/12/24 08:38:39;;;;;;;109.30;36.67;;;;;;;0.09;100.00;100337.31;5014292;28;20278;-75
2021/12/24 08:41:05;;;;;;;136.77;37.97;;;;;;;0.02;100.00;100306.34;5019766;28;20291;-75
2021/12/24 08:43:31;;;;;;;;;;;;;;;-0.10;100.00;100281.78;5017531;28;20031;-75
2021/12/24 08:45:56;;;;;;;126.75;35.40;;;;;;;-0.12;100.00;100267.91;4990644;28;19913;-75
2021/12/24 08:48:22;;;;;;;104.47;30.83;;;;;;;-0.15;100.00;100255.84;5015041;28;20069;-76
2021/12/24 08:50:47;;;;;;;107.70;32.45;;;;;;;-0.32;100.00;100206.34;5023813;28;20124;-75
2021/12/24 08:53:13;;;;;;;98.35;31.00;;;;;;;-0.15;100.00;100234.88;5031281;28;20105;-74
2021/12/24 08:55:40;;;;;;;98.35;32.60;;;;;;;-0.11;100.00;100244.22;5021185;28;20041;-75
2021/12/24 08:58:06;;;;;;;101.43;32.40;;;;;;;0.01;100.00;100253.00;5013457;28;20025;-76
2021/12/24 09:00:33;;;;;;;96.03;29.77;;;;;;;-0.06;100.00;100226.34;5021236;28;20037;-77
2021/12/24 09:03:01;;;;;;;88.15;31.65;;;;;;;-0.33;100.00;100153.03;5008169;28;20033;-75
2021/12/24 09:05:27;;;;;;;96.38;32.28;;;;;;;-0.20;100.00;100174.00;5025613;28;20881;-76
2021/12/24 09:07:52;;;;;;;96.25;33.22;;;;;;;-0.19;100.00;100159.91;5025674;28;20046;-76
2021/12/24 09:10:18;;;;;;;91.13;33.70;;;;;;;-0.19;100.00;100165.16;5016157;28;20045;-75
2021/12/24 09:12:43;;;;;;;91.70;34.03;;;;;;;-0.19;100.00;100153.84;5008519;28;20288;-75
2021/12/24 09:15:11;;;;;;;100.38;32.35;;;;;;;-0.12;100.00;100160.34;5012606;28;20037;-74
2021/12/24 09:17:37;;;;;;;127.38;37.38;;;;;;;-0.09;100.00;100160.97;4998971;28;20095;-75
2021/12/24 09:20:05;;;;;;;100.88;32.45;;;;;;;-0.03;100.00;100165.75;4988493;28;20053;-75
2021/12/24 09:22:34;;;;;;;91.93;30.55;;;;;;;-0.06;100.00;100155.50;5009118;28;20033;-75
2021/12/24 09:25:00;;;;;;;96.80;33.92;;;;;;;0.07;100.00;100180.88;5031058;28;20057;-74
2021/12/24 09:27:25;;;;;;;106.20;34.55;;;;;;;0.09;100.00;100174.56;5031089;28;20069;-76
2021/12/24 09:29:51;;;;;;;98.97;34.53;;;;;;;0.12;100.00;100184.84;5015228;28;20025;-74
2021/12/24 09:32:17;;;;;;;119.15;34.35;;;;;;;0.14;100.00;100174.22;5009023;28;20041;-75
2021/12/24 09:34:42;;;;;;;94.97;33.47;;;;;;;0.16;100.00;100159.22;5017713;28;20038;-75
2021/12/24 09:37:08;;;;;;;96.03;35.80;;;;;;;0.19;100.00;100148.50;5011749;28;20075;-74
2021/12/24 09:39:34;;;;;;;88.43;33.97;;;;;;;0.33;100.00;100171.97;4995587;28;20028;-75
2021/12/24 09:42:00;;;;;;;;;;;;;;;0.38;100.00;100159.34;5030564;28;20096;-75
2021/12/24 09:44:25;;;;;;;86.07;30.88;;;;;;;0.36;100.00;100137.59;5029535;28;19948;-74
2021/12/24 09:46:52;;;;;;;86.35;30.73;;;;;;;0.46;100.00;100143.03;5020973;28;20037;-74
2021/12/24 09:49:18;;;;;;;83.30;29.90;;;;;;;0.55;100.00;100149.41;5010450;28;20025;-74
2021/12/24 09:51:46;;;;;;;78.65;29.27;;;;;;;0.61;100.00;100141.06;5027483;28;20036;-74
2021/12/24 09:54:20;;;;;;;83.72;31.60;;;;;;;0.66;100.00;100119.72;5030867;28;20024;-77
2021/12/24 09:56:47;;;;;;;77.90;27.15;;;;;;;0.74;100.00;100107.66;5003742;28;20049;-76
2021/12/24 09:59:13;;;;;;;84.45;29.35;;;;;;;0.74;100.00;100073.50;5008545;28;20100;-76
2021/12/24 10:01:43;;;;;;;76.30;27.55;;;;;;;0.79;100.00;100057.38;5008582;28;20029;-75
2021/12/24 10:04:12;;;;;;;67.45;25.23;;;;;;;0.83;100.00;100043.91;4995541;28;20500;-75
2021/12/24 10:06:39;;;;;;;60.83;22.85;;;;;;;0.77;100.00;99998.84;5009240;28;20040;-75
2021/12/24 10:09:11;;;;;;;76.57;28.48;;;;;;;0.80;100.00;99969.72;5031760;28;20037;-74
2021/12/24 10:11:49;;;;;;;61.75;24.65;;;;;;;0.85;100.00;99946.56;5030157;28;20037;-77
2021/12/24 10:14:20;;;;;;;47.50;19.52;;;;;;;0.77;100.00;99907.75;5028860;28;20390;-75
2021/12/24 10:16:49;;;;;;;58.78;23.17;;;;;;;0.77;100.00;99884.09;5008325;28;20511;-74
2021/12/24 10:19:15;;;;;;;63.47;23.80;;;;;;;0.68;100.00;99848.03;5002866;28;20037;-74
2021/12/24 10:21:44;;;;;;;57.45;20.92;;;;;;;0.58;100.00;99836.56;5025254;28;20064;-74
2021/12/24 10:24:19;;;;;;;55.50;23.38;;;;;;;0.48;100.00;99799.69;5022181;28;20033;-74
2021/12/24 10:26:46;;;;;;;58.40;22.75;;;;;;;0.39;100.00;99766.28;5009368;28;20038;-74
2021/12/24 10:29:31;;;;;;;55.00;23.52;;;;;;;0.25;100.00;99754.22;5027267;28;20036;-75
2021/12/24 10:32:06;;;;;;;60.33;21.52;;;;;;;0.18;100.00;99732.88;5007924;28;20036;-75
2021/12/24 10:34:35;;;;;;;63.25;22.75;;;;;;;0.38;100.00;99749.69;5041279;22;20912;-72
2021/12/24 10:37:08;;;;;;;56.80;24.08;;;;;;;0.32;100.00;99733.56;5043074;28;20037;-71
2021/12/24 10:39:45;;;;;;;62.15;21.73;;;;;;;0.35;100.00;99722.81;5046320;28;20037;-71
2021/12/24 10:42:32;;;;;;;54.63;20.25;;;;;;;0.34;100.00;99705.41;5045100;28;20033;-71
2021/12/24 10:44:59;;;;;;;48.50;21.45;;;;;;;0.37;100.00;99729.63;5009537;28;20043;-71
2021/12/24 10:47:36;;;;;;;56.95;21.80;;;;;;;0.38;100.00;99712.91;5026188;28;20029;-71
2021/12/24 10:55:21;;;;;;;57.25;21.05;;;;;;;0.10;100.00;99668.84;5026470;28;20589;-72
2021/12/24 10:57:51;;;;;;;61.33;22.87;;;;;;;0.13;100.00;99676.44;5026504;28;20048;-71
2021/12/24 11:00:16;;;;;;;52.05;19.90;;;;;;;0.13;100.00;99686.94;5026832;28;20030;-71
2021/12/24 11:02:43;;;;;;;57.70;22.37;;;;;;;0.02;100.00;99677.28;5026286;28;20390;-71
2021/12/24 11:05:32;;;;;;;61.45;23.35;;;;;;;0.03;100.00;99692.09;4992207;28;20292;-72
2021/12/24 11:07:59;;;;;;;56.53;19.98;;;;;;;0.05;100.00;99702.44;5008468;28;20394;-72
2021/12/24 11:10:29;;;;;;;55.83;23.15;;;;;;;0.06;100.00;99720.72;5008634;28;20372;-72
2021/12/24 11:13:12;;;;;;;55.70;22.42;;;;;;;0.06;100.00;99727.75;5019161;28;20033;-72
2021/12/24 11:15:46;;;;;;;52.35;21.83;;;;;;;0.07;100.00;99729.41;5026062;28;20114;-72
2021/12/24 11:18:23;;;;;;;57.20;21.05;;;;;;;-0.09;100.00;99714.88;5026194;28;20033;-72
2021/12/24 11:21:01;;;;;;;63.47;23.10;;;;;;;-0.02;100.00;99742.31;5025972;28;20037;-72
2021/12/24 11:23:29;;;;;;;59.92;20.98;;;;;;;-0.09;100.00;99733.25;5026196;28;20425;-72
2021/12/24 11:26:07;;;;;;;56.38;21.75;;;;;;;-0.08;100.00;99742.78;5025912;28;20033;-72
2021/12/24 11:28:34;;;;;;;60.85;22.52;;;;;;;-0.06;100.00;99759.25;5008835;28;20037;-72
2021/12/24 11:31:11;;;;;;;71.05;24.58;;;;;;;-0.07;100.00;99767.22;5008452;28;20038;-72
2021/12/24 11:33:39;;;;;;;62.95;23.15;;;;;;;0.01;100.00;99785.03;4990366;28;20613;-72
2021/12/24 11:36:07;;;;;;;67.43;26.55;;;;;;;-0.11;100.00;99765.81;5008220;28;20033;-72
2021/12/24 11:38:42;;;;;;;66.80;24.58;;;;;;;-0.02;100.00;99805.28;5026254;28;20037;-72
2021/12/24 11:41:13;;;;;;;72.82;26.52;;;;;;;-0.11;100.00;99782.38;5018940;28;20040;-72
2021/12/24 11:43:44;;;;;;;70.88;23.63;;;;;;;-0.07;100.00;99796.94;5025593;28;20494;-72
2021/12/24 11:46:15;;;;;;;70.28;25.40;;;;;;;0.09;100.00;99825.44;5025654;28;20037;-72
2021/12/24 11:48:42;;;;;;;84.00;25.98;;;;;;;0.34;100.00;99868.22;5008026;28;20057;-72
2021/12/24 11:51:13;;;;;;;80.85;25.38;;;;;;;0.40;100.00;99873.00;4991727;28;20033;-72
2021/12/24 11:53:39;;;;;;;75.43;25.80;;;;;;;0.37;100.00;99837.28;5007755;28;20490;-72
2021/12/24 11:56:08;;;;;;;66.63;22.67;;;;;;;0.60;100.00;99864.38;5007953;28;20076;-72
2021/12/24 11:58:45;;;;;;;66.35;21.88;;;;;;;0.64;100.00;99849.22;5025332;28;20037;-72
2021/12/24 12:01:11;;;;;;;57.95;22.88;;;;;;;0.57;100.00;99811.25;5007693;28;20560;-72
2021/12/24 12:03:38;;;;;;;58.85;19.27;;;;;;;0.45;100.00;99768.41;5007570;28;20103;-72
2021/12/24 12:06:25;;;;;;;51.70;20.58;;;;;;;0.40;100.00;99758.28;5025508;28;20495;-72
2021/12/24 12:08:55;;;;;;;45.17;18.63;;;;;;;0.38;100.00;99743.59;5008516;28;20042;-72
2021/12/24 12:11:21;;;;;;;49.42;19.38;;;;;;;0.29;100.00;99721.53;5025311;28;20029;-72
2021/12/24 12:14:01;;;;;;;49.43;18.20;;;;;;;0.30;100.00;99723.19;5025465;28;20052;-72
2021/12/24 12:16:47;;;;;;;42.38;15.73;;;;;;;0.22;100.00;99704.59;5007769;28;20291;-72
2021/12/24 12:22:29;;;;;;;38.78;15.98;;;;;;;0.16;100.00;99698.06;5007554;28;20499;-71
2021/12/24 12:25:00;;;;;;;49.08;14.57;;;;;;;0.23;100.00;99703.63;5024890;28;20034;-72
2021/12/24 12:27:41;;;;;;;32.40;13.43;;;;;;;0.31;100.00;99705.66;5025257;28;20055;-72
2021/12/24 12:30:36;;;;;;;25.13;10.25;;;;;;;0.26;100.00;99697.28;5025223;28;20188;-72
2021/12/24 12:33:09;;;;;;;27.15;10.43;;;;;;;0.33;100.00;99711.63;5018639;28;20048;-74
2021/12/24 12:35:58;;;;;;;21.65;9.30;;;;;;;0.25;100.00;99685.97;5007024;28;20029;-74
2021/12/24 12:38:31;;;;;;;15.68;7.00;;;;;;;0.27;100.00;99680.59;5024772;28;20038;-72
2021/12/24 12:41:19;;;;;;;14.73;6.18;;;;;;;0.22;100.00;99664.38;5000537;28;20075;-72
2021/12/24 12:43:46;;;;;;;16.05;5.47;;;;;;;0.16;100.00;99663.06;4991387;28;20548;-72
2021/12/24 12:46:30;;;;;;;13.65;5.75;;;;;;;0.25;100.00;99667.59;4997886;28;20112;-72
2021/12/24 12:48:58;;;;;;;12.50;4.88;;;;;;;0.27;100.00;99667.47;5007394;28;20038;-72
2021/12/24 12:51:55;;;;;;;13.43;4.63;;;;;;;0.32;100.00;99678.44;5007342;28;20037;-72
2021/12/24 12:54:41;;;;;;;9.95;4.70;;;;;;;0.47;100.00;99686.88;4982497;28;20048;-72
2021/12/24 12:57:12;;;;;;;10.27;4.38;;;;;;;0.45;100.00;99668.63;5027204;28;20046;-72
2021/12/24 12:59:39;;;;;;;13.88;4.55;;;;;;;0.42;100.00;99660.97;5028514;28;20410;-72
2021/12/24 13:02:05;;;;;;;8.98;3.40;;;;;;;0.32;100.00;99647.75;5028740;28;20467;-72